Time;durP1;ratioP1;P1;durP2;ratioP2;P2;SDS_P1;SDS_P2;PMS_P1;PMS_P2;Temp;Humidity;BMP_temperature;BMP_pressure;BME280_temperature;BME280_humidity;BME280_pressure;Samples;Min_cycle;Max_cycle;Signal;HPM_P1;HPM_P2
2022/01/09 00:01:14;;;;;;;29.90;12.43;;;;;;;-141.29;100.00;58932.97;5071936;28;20831;-76
2022/01/09 00:03:44;;;;;;;22.07;10.70;;;;;;;-141.29;100.00;58932.97;5071226;28;20455;-76
2022/01/09 00:06:14;;;;;;;15.90;7.93;;;;;;;-141.29;100.00;58932.97;5071694;28;20454;-75
2022/01/09 00:08:43;;;;;;;17.03;8.93;;;;;;;-141.29;100.00;58932.97;5071321;28;20527;-76
2022/01/09 00:11:14;;;;;;;23.00;9.70;;;;;;;-141.29;100.00;58932.97;5071515;28;20831;-74
2022/01/09 00:13:45;;;;;;;18.63;8.57;;;;;;;-141.29;100.00;58932.97;5070871;28;20443;-73
2022/01/09 00:16:12;;;;;;;18.87;8.57;;;;;;;-141.29;100.00;58932.97;5071700;28;20980;-75
2022/01/09 00:18:40;;;;;;;36.70;12.93;;;;;;;-141.29;100.00;58932.97;5071296;28;21018;-75
2022/01/09 00:21:06;;;;;;;17.53;8.43;;;;;;;-141.29;100.00;58932.97;5071200;28;20960;-74
2022/01/09 00:23:35;;;;;;;22.30;9.87;;;;;;;-141.29;100.00;58932.97;5074650;28;20438;-75
2022/01/09 00:26:02;;;;;;;16.60;8.77;;;;;;;-141.29;100.00;58932.97;5074997;28;20445;-75
2022/01/09 00:28:30;;;;;;;18.90;9.07;;;;;;;-141.29;100.00;58932.97;5074892;28;20434;-76
2022/01/09 00:31:01;;;;;;;22.87;9.40;;;;;;;-141.29;100.00;58932.97;5074825;28;20504;-76
2022/01/09 00:33:30;;;;;;;17.87;8.73;;;;;;;-141.29;100.00;58932.97;5074729;28;20819;-75
2022/01/09 00:35:57;;;;;;;10.37;6.37;;;;;;;-141.29;100.00;58932.97;5074360;28;20450;-73
2022/01/09 00:38:24;;;;;;;18.27;7.80;;;;;;;-141.29;100.00;58932.97;5074416;28;20439;-74
2022/01/09 00:40:54;;;;;;;14.93;7.57;;;;;;;-141.29;100.00;58932.97;5075101;28;20460;-76
2022/01/09 00:43:21;;;;;;;19.10;8.20;;;;;;;-141.29;100.00;58932.97;5074575;28;20492;-74
2022/01/09 00:45:51;;;;;;;17.97;9.20;;;;;;;-141.29;100.00;58932.97;5074235;28;20458;-76
2022/01/09 00:48:31;;;;;;;21.53;9.90;;;;;;;-141.29;100.00;58932.97;5074435;28;20477;-75
2022/01/09 00:51:00;;;;;;;20.13;9.87;;;;;;;-141.29;100.00;58932.97;5074335;28;20545;-75
2022/01/09 00:53:33;;;;;;;17.27;9.07;;;;;;;-141.29;100.00;58932.97;5074154;28;20447;-74
2022/01/09 00:56:02;;;;;;;14.93;7.97;;;;;;;-141.29;100.00;58932.97;5074159;28;20493;-73
2022/01/09 00:58:33;;;;;;;10.57;6.73;;;;;;;-141.29;100.00;58932.97;5074284;28;20447;-74
2022/01/09 01:01:06;;;;;;;11.40;6.87;;;;;;;-141.29;100.00;58932.97;5074344;28;20488;-75
2022/01/09 01:03:34;;;;;;;12.47;6.97;;;;;;;-141.29;100.00;58932.97;5074831;28;20435;-74
2022/01/09 01:06:02;;;;;;;13.30;7.57;;;;;;;-141.29;100.00;58932.97;5075911;28;20447;-74
2022/01/09 01:08:30;;;;;;;11.03;6.67;;;;;;;-141.29;100.00;58932.97;5074156;28;21027;-74
2022/01/09 01:10:57;;;;;;;15.87;7.83;;;;;;;-141.29;100.00;58932.97;5074115;28;20443;-75
2022/01/09 01:13:26;;;;;;;15.57;7.53;;;;;;;-141.29;100.00;58932.97;5073934;28;20442;-73
2022/01/09 01:15:58;;;;;;;12.13;6.93;;;;;;;-141.29;100.00;58932.97;5074043;28;20465;-76
2022/01/09 01:18:30;;;;;;;17.23;8.33;;;;;;;-141.29;100.00;58932.97;5074021;28;20446;-75
2022/01/09 01:20:57;;;;;;;16.50;9.00;;;;;;;-141.29;100.00;58932.97;5072840;28;20438;-76
2022/01/09 01:23:29;;;;;;;18.87;10.07;;;;;;;-141.29;100.00;58932.97;5073931;28;20496;-74
2022/01/09 01:28:43;;;;;;;19.73;9.70;;;;;;;-141.29;100.00;58932.97;5073953;28;20443;-74
2022/01/09 01:31:14;;;;;;;20.03;9.90;;;;;;;-141.29;100.00;58932.97;5073699;28;20449;-75
2022/01/09 01:33:44;;;;;;;17.23;8.37;;;;;;;-141.29;100.00;58932.97;5072287;28;20439;-77
2022/01/09 01:36:13;;;;;;;17.30;8.57;;;;;;;-141.29;100.00;58932.97;5073354;28;20495;-74
2022/01/09 01:38:41;;;;;;;15.87;8.83;;;;;;;-141.29;100.00;58932.97;5073623;28;20500;-74
2022/01/09 01:41:14;;;;;;;19.93;9.33;;;;;;;-141.29;100.00;58932.97;5073439;28;20443;-74
2022/01/09 01:43:42;;;;;;;21.93;10.37;;;;;;;-141.29;100.00;58932.97;5072434;28;20442;-73
2022/01/09 01:46:09;;;;;;;23.13;10.30;;;;;;;-141.29;100.00;58932.97;5073592;28;20542;-75
2022/01/09 01:48:36;;;;;;;19.27;9.60;;;;;;;-141.29;100.00;58932.97;5072926;28;20539;-75
2022/01/09 01:51:05;;;;;;;20.40;10.37;;;;;;;-141.29;100.00;58932.97;5073392;28;20598;-75
2022/01/09 01:53:38;;;;;;;22.70;11.53;;;;;;;-141.29;100.00;58932.97;5072946;28;20957;-74
2022/01/09 01:56:08;;;;;;;25.97;11.70;;;;;;;-141.29;100.00;58932.97;5072973;28;20454;-74
2022/01/09 01:58:38;;;;;;;27.20;11.20;;;;;;;-141.29;100.00;58932.97;5073297;28;20438;-74
2022/01/09 02:01:05;;;;;;;26.03;11.73;;;;;;;-141.29;100.00;58932.97;5073084;28;20430;-73
2022/01/09 02:03:32;;;;;;;39.30;13.93;;;;;;;-141.29;100.00;58932.97;5072963;28;20446;-74
2022/01/09 02:05:59;;;;;;;22.70;10.90;;;;;;;-141.29;100.00;58932.97;5073047;28;20443;-74
2022/01/09 02:08:28;;;;;;;25.87;11.83;;;;;;;-141.29;100.00;58932.97;5073184;28;20435;-74
2022/01/09 02:10:55;;;;;;;21.07;10.10;;;;;;;-141.29;100.00;58932.97;5072676;28;21008;-75
2022/01/09 02:13:25;;;;;;;25.90;11.43;;;;;;;-141.29;100.00;58932.97;5072834;28;20949;-75
2022/01/09 02:15:57;;;;;;;26.93;11.87;;;;;;;-141.29;100.00;58932.97;5072609;28;20442;-75
2022/01/09 02:18:25;;;;;;;27.63;11.53;;;;;;;-141.29;100.00;58932.97;5073303;28;20945;-73
2022/01/09 02:20:55;;;;;;;22.40;10.57;;;;;;;-141.29;100.00;58932.97;5072741;28;20949;-74
2022/01/09 02:23:22;;;;;;;24.83;10.30;;;;;;;-141.29;100.00;58932.97;5071684;28;20976;-74
2022/01/09 02:25:52;;;;;;;25.33;11.17;;;;;;;-141.29;100.00;58932.97;5072496;28;20531;-75
2022/01/09 02:28:20;;;;;;;20.20;9.87;;;;;;;-141.29;100.00;58932.97;5072485;28;20872;-75
2022/01/09 02:30:49;;;;;;;27.47;12.67;;;;;;;-141.29;100.00;58932.97;5072536;28;20568;-76
2022/01/09 02:33:21;;;;;;;22.07;11.50;;;;;;;-141.29;100.00;58932.97;5072350;28;20435;-77
2022/01/09 02:35:51;;;;;;;23.03;11.50;;;;;;;-141.29;100.00;58932.97;5072609;28;20877;-76
2022/01/09 02:38:22;;;;;;;24.27;12.13;;;;;;;-141.29;100.00;58932.97;5072395;28;20953;-74
2022/01/09 02:40:53;;;;;;;42.10;18.50;;;;;;;-141.29;100.00;58932.97;5072815;28;20525;-74
2022/01/09 02:43:21;;;;;;;32.27;14.83;;;;;;;-141.29;100.00;58932.97;5071959;28;20450;-74
2022/01/09 02:45:53;;;;;;;26.63;11.40;;;;;;;-141.29;100.00;58932.97;5072235;28;20443;-73
2022/01/09 02:48:23;;;;;;;18.00;10.10;;;;;;;-141.29;100.00;58932.97;5072310;28;21001;-74
2022/01/09 02:51:00;;;;;;;20.67;11.23;;;;;;;-141.29;100.00;58932.97;5072099;28;20473;-74
2022/01/09 02:53:44;;;;;;;18.97;10.43;;;;;;;-141.29;100.00;58932.97;5071952;28;20463;-75
2022/01/09 02:56:12;;;;;;;19.63;10.27;;;;;;;-141.29;100.00;58932.97;5072001;28;20529;-75
2022/01/09 02:58:41;;;;;;;19.07;10.57;;;;;;;-141.29;100.00;58932.97;5071892;28;20504;-76
2022/01/09 03:01:12;;;;;;;22.07;10.60;;;;;;;-141.29;100.00;58932.97;5072073;28;20442;-75
2022/01/09 03:03:42;;;;;;;16.83;9.73;;;;;;;-141.29;100.00;58932.97;5072591;28;20488;-76
2022/01/09 03:06:11;;;;;;;18.53;10.63;;;;;;;-141.29;100.00;58932.97;5071756;28;20961;-74
2022/01/09 03:08:40;;;;;;;17.70;9.90;;;;;;;-141.29;100.00;58932.97;5072067;28;20499;-74
2022/01/09 03:13:49;;;;;;;21.03;10.23;;;;;;;-141.29;100.00;58932.97;5071798;28;21040;-74
2022/01/09 03:16:16;;;;;;;19.00;10.27;;;;;;;-141.29;100.00;58932.97;5072909;28;20473;-74
2022/01/09 03:18:46;;;;;;;19.33;10.23;;;;;;;-141.29;100.00;58932.97;5072395;28;20451;-74
2022/01/09 03:21:13;;;;;;;24.23;11.03;;;;;;;-141.29;100.00;58932.97;5071872;28;20446;-74
2022/01/09 03:23:42;;;;;;;18.13;10.03;;;;;;;-141.29;100.00;58932.97;5071483;28;20455;-74
2022/01/09 03:26:11;;;;;;;23.83;11.07;;;;;;;-141.29;100.00;58932.97;5072449;28;20447;-73
2022/01/09 03:28:37;;;;;;;19.80;10.10;;;;;;;-141.29;100.00;58932.97;5071809;28;20430;-74
2022/01/09 03:31:05;;;;;;;23.03;10.77;;;;;;;-141.29;100.00;58932.97;5071734;28;20494;-73
2022/01/09 03:33:32;;;;;;;21.77;10.03;;;;;;;-141.29;100.00;58932.97;5072271;28;20476;-73
2022/01/09 03:36:00;;;;;;;22.43;10.23;;;;;;;-141.29;100.00;58932.97;5071742;28;20918;-75
2022/01/09 03:38:28;;;;;;;19.37;10.07;;;;;;;-141.29;100.00;58932.97;5071477;28;20889;-75
2022/01/09 03:40:57;;;;;;;18.53;9.63;;;;;;;-141.29;100.00;58932.97;5071402;28;20462;-75
2022/01/09 03:43:25;;;;;;;17.17;9.40;;;;;;;-141.29;100.00;58932.97;5071730;28;20443;-75
2022/01/09 03:45:52;;;;;;;16.93;9.47;;;;;;;-141.29;100.00;58932.97;5071373;28;20443;-75
2022/01/09 03:48:19;;;;;;;20.77;9.90;;;;;;;-141.29;100.00;58932.97;5071640;28;20557;-74
2022/01/09 03:50:50;;;;;;;21.43;10.07;;;;;;;-141.29;100.00;58932.97;5070984;28;20927;-75
2022/01/09 03:53:18;;;;;;;16.73;9.70;;;;;;;-141.29;100.00;58932.97;5072049;28;20427;-75
2022/01/09 03:55:45;;;;;;;19.17;9.10;;;;;;;-141.29;100.00;58932.97;5071408;28;20450;-75
2022/01/09 03:58:14;;;;;;;19.87;9.30;;;;;;;-141.29;100.00;58932.97;5074743;28;20847;-74
2022/01/09 04:00:41;;;;;;;16.90;9.60;;;;;;;-141.29;100.00;58932.97;5075417;28;20503;-75
2022/01/09 04:03:08;;;;;;;17.20;10.33;;;;;;;-141.29;100.00;58932.97;5075357;28;20867;-74
2022/01/09 04:05:35;;;;;;;20.03;10.20;;;;;;;-141.29;100.00;58932.97;5075417;28;20438;-72
2022/01/09 04:08:02;;;;;;;24.03;9.90;;;;;;;-141.29;100.00;58932.97;5075188;28;20443;-73
2022/01/09 04:10:32;;;;;;;20.90;11.07;;;;;;;-141.29;100.00;58932.97;5075172;28;20474;-74
2022/01/09 04:13:00;;;;;;;19.83;10.63;;;;;;;-141.29;100.00;58932.97;5075673;28;20805;-73
2022/01/09 04:15:29;;;;;;;19.97;10.97;;;;;;;-141.29;100.00;58932.97;5075039;28;20458;-75
2022/01/09 04:17:57;;;;;;;19.10;9.77;;;;;;;-141.29;100.00;58932.97;5075019;28;20439;-75
2022/01/09 04:20:25;;;;;;;21.97;10.83;;;;;;;-141.29;100.00;58932.97;5074877;28;20446;-73
2022/01/09 04:22:53;;;;;;;25.17;10.80;;;;;;;-141.29;100.00;58932.97;5075007;28;20798;-74
2022/01/09 04:25:20;;;;;;;29.17;11.77;;;;;;;-141.29;100.00;58932.97;5074976;28;20471;-74
2022/01/09 04:27:49;;;;;;;27.63;11.80;;;;;;;-141.29;100.00;58932.97;5074640;28;20443;-75
2022/01/09 04:30:19;;;;;;;27.10;11.87;;;;;;;-141.29;100.00;58932.97;5074588;28;20512;-75
2022/01/09 04:32:49;;;;;;;26.97;12.33;;;;;;;-141.29;100.00;58932.97;5074921;28;20496;-74
2022/01/09 04:35:18;;;;;;;27.53;11.87;;;;;;;-141.29;100.00;58932.97;5074532;28;20458;-73
2022/01/09 04:37:46;;;;;;;28.73;13.33;;;;;;;-141.29;100.00;58932.97;5074823;28;20441;-73
2022/01/09 04:40:15;;;;;;;25.87;13.10;;;;;;;-141.29;100.00;58932.97;5074602;28;20964;-73
2022/01/09 04:42:46;;;;;;;36.93;15.13;;;;;;;-141.29;100.00;58932.97;5075306;28;20466;-74
2022/01/09 04:45:16;;;;;;;38.00;16.47;;;;;;;-141.29;100.00;58932.97;5074924;28;20534;-74
2022/01/09 04:47:45;;;;;;;32.10;15.13;;;;;;;-141.29;100.00;58932.97;5074658;28;20478;-76
2022/01/09 04:50:19;;;;;;;34.73;15.30;;;;;;;-141.29;100.00;58932.97;5074409;28;20580;-74
2022/01/09 04:52:58;;;;;;;33.17;15.17;;;;;;;-141.29;100.00;58932.97;5074325;28;20446;-75
2022/01/09 04:55:27;;;;;;;27.57;14.20;;;;;;;-141.29;100.00;58932.97;5074347;28;20754;-75
2022/01/09 04:57:55;;;;;;;32.50;14.77;;;;;;;-141.29;100.00;58932.97;5074337;28;20942;-76
2022/01/09 05:00:25;;;;;;;28.43;14.80;;;;;;;-141.29;100.00;58932.97;5073989;28;20776;-75
2022/01/09 05:02:52;;;;;;;32.43;14.53;;;;;;;-141.29;100.00;58932.97;5074137;28;21026;-74
2022/01/09 05:05:22;;;;;;;30.87;16.07;;;;;;;-141.29;100.00;58932.97;5074316;28;20441;-75
2022/01/09 05:07:49;;;;;;;53.27;25.23;;;;;;;-141.29;100.00;58932.97;5074028;28;20496;-75
2022/01/09 05:10:17;;;;;;;36.10;17.13;;;;;;;-141.29;100.00;58932.97;5074043;28;21046;-76
2022/01/09 05:12:47;;;;;;;31.50;14.83;;;;;;;-141.29;100.00;58932.97;5073808;28;20954;-74
2022/01/09 05:15:16;;;;;;;38.57;14.97;;;;;;;-141.29;100.00;58932.97;5074497;28;20500;-76
2022/01/09 05:17:43;;;;;;;42.60;19.23;;;;;;;-141.29;100.00;58932.97;5074393;28;20439;-74
2022/01/09 05:20:11;;;;;;;43.53;20.50;;;;;;;-141.29;100.00;58932.97;5074142;28;20480;-75
2022/01/09 05:22:41;;;;;;;51.40;23.43;;;;;;;-141.29;100.00;58932.97;5073649;28;20511;-73
2022/01/09 05:25:15;;;;;;;33.90;14.90;;;;;;;-141.29;100.00;58932.97;5073991;28;20438;-75
2022/01/09 05:27:50;;;;;;;32.77;13.70;;;;;;;-141.29;100.00;58932.97;5074074;28;20964;-74
2022/01/09 05:30:16;;;;;;;23.27;12.07;;;;;;;-141.29;100.00;58932.97;5073948;28;21079;-75
2022/01/09 05:32:46;;;;;;;26.03;11.17;;;;;;;-141.29;100.00;58932.97;5073686;28;20954;-75
2022/01/09 05:35:18;;;;;;;24.80;12.80;;;;;;;-141.29;100.00;58932.97;5073681;28;20442;-74
2022/01/09 05:37:52;;;;;;;23.90;12.20;;;;;;;-141.29;100.00;58932.97;5073467;28;20439;-72
2022/01/09 05:40:21;;;;;;;25.97;11.57;;;;;;;-141.29;100.00;58932.97;5073294;28;20835;-73
2022/01/09 05:42:53;;;;;;;24.53;12.27;;;;;;;-141.29;100.00;58932.97;5073550;28;20916;-75
2022/01/09 05:45:20;;;;;;;27.53;13.90;;;;;;;-141.29;100.00;58932.97;5073837;28;20451;-74
2022/01/09 05:47:49;;;;;;;30.83;14.33;;;;;;;-141.29;100.00;58932.97;5073091;28;20494;-73
2022/01/09 05:50:17;;;;;;;25.93;14.10;;;;;;;-141.29;100.00;58932.97;5073281;28;20442;-73
2022/01/09 05:52:44;;;;;;;26.83;12.97;;;;;;;-141.29;100.00;58932.97;5073370;28;20488;-75
2022/01/09 05:55:13;;;;;;;22.10;12.13;;;;;;;-141.29;100.00;58932.97;5072997;28;20454;-78
2022/01/09 05:57:42;;;;;;;24.87;12.33;;;;;;;-141.29;100.00;58932.97;5073140;28;20435;-74
2022/01/09 06:00:14;;;;;;;24.90;12.83;;;;;;;-141.29;100.00;58932.97;5073001;28;20957;-75
2022/01/09 06:02:42;;;;;;;32.07;13.17;;;;;;;-141.29;100.00;58932.97;5071847;28;20529;-75
2022/01/09 06:05:12;;;;;;;24.53;13.43;;;;;;;-141.29;100.00;58932.97;5072874;28;20523;-76
2022/01/09 06:07:43;;;;;;;23.17;11.10;;;;;;;-141.29;100.00;58932.97;5072666;28;20926;-75
2022/01/09 06:10:13;;;;;;;24.33;12.07;;;;;;;-141.29;100.00;58932.97;5072581;28;21018;-75
2022/01/09 06:12:45;;;;;;;31.83;14.10;;;;;;;-141.29;100.00;58932.97;5072968;28;20812;-74
2022/01/09 06:15:20;;;;;;;28.67;13.97;;;;;;;-141.29;100.00;58932.97;5072922;28;20439;-76
2022/01/09 06:17:47;;;;;;;22.37;12.40;;;;;;;-141.29;100.00;58932.97;5072867;28;20423;-75
2022/01/09 06:20:22;;;;;;;27.73;13.93;;;;;;;-141.29;100.00;58932.97;5071847;28;20865;-75
2022/01/09 06:22:49;;;;;;;27.07;13.73;;;;;;;-141.29;100.00;58932.97;5072652;28;20426;-74
2022/01/09 06:25:18;;;;;;;22.90;12.80;;;;;;;-141.29;100.00;58932.97;5072637;28;20925;-74
2022/01/09 06:27:50;;;;;;;27.63;14.07;;;;;;;-141.29;100.00;58932.97;5072591;28;20446;-75
2022/01/09 06:30:19;;;;;;;28.50;13.70;;;;;;;-141.29;100.00;58932.97;5072403;28;20445;-75
2022/01/09 06:32:48;;;;;;;27.33;13.57;;;;;;;-141.29;100.00;58932.97;5072424;28;21010;-73
2022/01/09 06:35:26;;;;;;;36.80;14.00;;;;;;;-141.29;100.00;58932.97;5072635;28;20855;-73
2022/01/09 06:37:54;;;;;;;33.37;14.17;;;;;;;-141.29;100.00;58932.97;5072517;28;20821;-74
2022/01/09 06:40:31;;;;;;;30.30;13.60;;;;;;;-141.29;100.00;58932.97;5071045;28;20438;-75
2022/01/09 06:42:58;;;;;;;25.13;13.00;;;;;;;-141.29;100.00;58932.97;5072020;28;20491;-73
2022/01/09 06:45:27;;;;;;;89.23;38.83;;;;;;;-141.29;100.00;58932.97;5071976;28;20884;-76
2022/01/09 06:47:55;;;;;;;46.73;24.10;;;;;;;-141.29;100.00;58932.97;5072421;28;20485;-75
2022/01/09 06:50:23;;;;;;;71.63;36.33;;;;;;;-141.29;100.00;58932.97;5071884;28;20471;-74
2022/01/09 06:52:52;;;;;;;57.37;28.47;;;;;;;-141.29;100.00;58932.97;5072128;28;20900;-75
2022/01/09 06:55:19;;;;;;;49.70;24.23;;;;;;;-141.29;100.00;58932.97;5072514;28;20439;-75
2022/01/09 06:57:48;;;;;;;45.83;21.67;;;;;;;-141.29;100.00;58932.97;5072360;28;20524;-73
2022/01/09 07:00:17;;;;;;;57.03;20.70;;;;;;;-141.29;100.00;58932.97;5072248;28;20443;-76
2022/01/09 07:02:45;;;;;;;58.20;22.73;;;;;;;-141.29;100.00;58932.97;5072036;28;20439;-76
2022/01/09 07:05:13;;;;;;;35.13;16.27;;;;;;;-141.29;100.00;58932.97;5072032;28;20435;-75
2022/01/09 07:07:41;;;;;;;36.40;17.27;;;;;;;-141.29;100.00;58932.97;5071976;28;20466;-76
2022/01/09 07:10:10;;;;;;;38.90;17.27;;;;;;;-141.29;100.00;58932.97;5071844;28;20984;-77
2022/01/09 07:12:37;;;;;;;30.40;13.40;;;;;;;-141.29;100.00;58932.97;5071607;28;20482;-75
2022/01/09 07:15:08;;;;;;;29.73;15.00;;;;;;;-141.29;100.00;58932.97;5072814;28;20500;-75
2022/01/09 07:17:37;;;;;;;28.43;14.40;;;;;;;-141.29;100.00;58932.97;5072031;28;20837;-76
2022/01/09 07:20:08;;;;;;;32.90;16.13;;;;;;;-141.29;100.00;58932.97;5071965;28;20861;-76
2022/01/09 07:22:35;;;;;;;33.47;15.90;;;;;;;-141.29;100.00;58932.97;5071746;28;20492;-75
2022/01/09 07:25:02;;;;;;;26.97;14.97;;;;;;;-141.29;100.00;58932.97;5071816;28;20824;-75
2022/01/09 07:27:31;;;;;;;23.57;11.80;;;;;;;-141.29;100.00;58932.97;5072320;28;20874;-76
2022/01/09 07:29:59;;;;;;;20.47;11.77;;;;;;;-141.29;100.00;58932.97;5071868;28;20447;-77
2022/01/09 07:32:29;;;;;;;23.77;10.97;;;;;;;-141.29;100.00;58932.97;5075723;28;20474;-76
2022/01/09 07:34:57;;;;;;;21.37;10.73;;;;;;;-141.29;100.00;58932.97;5077050;28;20521;-76
2022/01/09 07:37:30;;;;;;;28.40;15.77;;;;;;;-141.29;100.00;58932.97;5075879;28;20550;-77
2022/01/09 07:39:57;;;;;;;18.37;11.50;;;;;;;-141.29;100.00;58932.97;5077337;28;20441;-76
2022/01/09 07:42:35;;;;;;;18.53;12.13;;;;;;;-141.29;100.00;58932.97;5077223;28;20470;-76
2022/01/09 07:45:09;;;;;;;18.80;11.70;;;;;;;-141.29;100.00;58932.97;5076474;28;20453;-76
2022/01/09 07:47:41;;;;;;;21.63;12.97;;;;;;;-141.29;100.00;58932.97;5076106;28;20532;-77
2022/01/09 07:50:11;;;;;;;19.23;12.50;;;;;;;-141.29;100.00;58932.97;5075638;28;20504;-75
2022/01/09 07:52:41;;;;;;;25.30;12.77;;;;;;;-141.29;100.00;58932.97;5075755;28;20589;-75
2022/01/09 07:55:14;;;;;;;17.87;11.13;;;;;;;-141.29;100.00;58932.97;5075469;28;20438;-74
2022/01/09 07:57:42;;;;;;;24.70;11.63;;;;;;;-141.29;100.00;58932.97;5075415;28;20949;-73
2022/01/09 08:00:12;;;;;;;22.07;12.73;;;;;;;-141.29;100.00;58932.97;5075406;28;20976;-75
2022/01/09 08:03:00;;;;;;;21.23;11.97;;;;;;;-141.29;100.00;58932.97;5075251;28;20965;-74
2022/01/09 08:05:33;;;;;;;24.77;13.17;;;;;;;-141.29;100.00;58932.97;5075472;28;20438;-75
2022/01/09 08:08:05;;;;;;;23.33;12.37;;;;;;;-141.29;100.00;58932.97;5075489;28;20443;-76
2022/01/09 08:10:33;;;;;;;23.70;12.07;;;;;;;-141.29;100.00;58932.97;5075931;28;20504;-77
2022/01/09 08:13:05;;;;;;;19.83;11.20;;;;;;;-141.29;100.00;58932.97;5073891;28;20486;-76
2022/01/09 08:15:36;;;;;;;15.10;9.10;;;;;;;-141.29;100.00;58932.97;5075234;28;20447;-77
2022/01/09 08:18:06;;;;;;;24.17;9.93;;;;;;;-141.29;100.00;58932.97;5075093;28;20458;-74
2022/01/09 08:20:36;;;;;;;16.53;9.17;;;;;;;-141.29;100.00;58932.97;5074754;28;20979;-78
2022/01/09 08:23:27;;;;;;;26.03;9.00;;;;;;;-141.29;100.00;58932.97;5074992;28;20500;-75
2022/01/09 08:26:04;;;;;;;16.60;9.47;;;;;;;-141.29;100.00;58932.97;5074920;28;20454;-75
2022/01/09 08:28:35;;;;;;;20.13;9.57;;;;;;;-141.29;100.00;58932.97;5073667;28;20445;-76
2022/01/09 08:31:05;;;;;;;21.40;10.73;;;;;;;-141.29;100.00;58932.97;5075415;28;20446;-75
2022/01/09 08:33:51;;;;;;;18.90;10.10;;;;;;;-141.29;100.00;58932.97;5074440;28;20454;-78
2022/01/09 08:36:20;;;;;;;13.97;7.70;;;;;;;-141.29;100.00;58932.97;5075045;28;20439;-77
2022/01/09 08:38:48;;;;;;;14.13;7.80;;;;;;;-141.29;100.00;58932.97;5074926;28;20438;-76
2022/01/09 08:41:15;;;;;;;10.20;5.80;;;;;;;-141.29;100.00;58932.97;5074685;28;20965;-78
2022/01/09 08:43:42;;;;;;;13.97;7.50;;;;;;;-141.29;100.00;58932.97;5072892;28;20461;-78
2022/01/09 08:46:10;;;;;;;15.87;5.73;;;;;;;-141.29;100.00;58932.97;5074209;28;20474;-76
2022/01/09 08:48:44;;;;;;;8.03;5.00;;;;;;;-141.29;100.00;58932.97;5074728;28;20528;-76
2022/01/09 08:51:15;;;;;;;9.80;4.80;;;;;;;-141.29;100.00;58932.97;5073023;28;20530;-74
2022/01/09 08:53:50;;;;;;;8.17;4.73;;;;;;;-141.29;100.00;58932.97;5074443;28;20474;-76
2022/01/09 08:56:20;;;;;;;8.97;5.70;;;;;;;-141.29;100.00;58932.97;5074106;28;20964;-76
2022/01/09 08:58:50;;;;;;;10.47;5.80;;;;;;;-141.29;100.00;58932.97;5074156;28;20457;-77
2022/01/09 09:01:21;;;;;;;9.97;5.47;;;;;;;-141.29;100.00;58932.97;5074079;28;20500;-76
2022/01/09 09:03:51;;;;;;;16.57;6.97;;;;;;;-141.29;100.00;58932.97;5074182;28;20438;-74
2022/01/09 09:06:19;;;;;;;11.47;6.57;;;;;;;-141.29;100.00;58932.97;5074437;28;20426;-75
2022/01/09 09:08:46;;;;;;;11.37;6.07;;;;;;;-141.29;100.00;58932.97;5073691;28;20545;-76
2022/01/09 09:11:13;;;;;;;11.70;5.60;;;;;;;-141.29;100.00;58932.97;5074001;28;20516;-74
2022/01/09 09:13:42;;;;;;;7.63;4.30;;;;;;;-141.29;100.00;58932.97;5074010;28;20451;-74
2022/01/09 09:16:10;;;;;;;12.93;5.83;;;;;;;-141.29;100.00;58932.97;5074140;28;20439;-76
2022/01/09 09:18:37;;;;;;;6.17;4.67;;;;;;;-141.29;100.00;58932.97;5073839;28;20453;-77
2022/01/09 09:21:05;;;;;;;11.87;5.37;;;;;;;-141.29;100.00;58932.97;5073829;28;20443;-76
2022/01/09 09:23:32;;;;;;;8.83;4.47;;;;;;;-141.29;100.00;58932.97;5073583;28;20434;-75
2022/01/09 09:26:00;;;;;;;6.90;3.40;;;;;;;-141.29;100.00;58932.97;5073898;28;20507;-74
2022/01/09 09:28:27;;;;;;;8.80;4.33;;;;;;;-141.29;100.00;58932.97;5073808;28;20445;-74
2022/01/09 09:30:54;;;;;;;5.67;3.83;;;;;;;-141.29;100.00;58932.97;5073669;28;20431;-76
2022/01/09 09:33:22;;;;;;;7.80;4.23;;;;;;;-141.29;100.00;58932.97;5073530;28;20486;-74
2022/01/09 09:35:52;;;;;;;6.40;4.23;;;;;;;-141.29;100.00;58932.97;5072268;28;20447;-75
2022/01/09 09:38:21;;;;;;;7.37;4.60;;;;;;;-141.29;100.00;58932.97;5073409;28;20454;-75
2022/01/09 09:40:49;;;;;;;6.23;3.97;;;;;;;-141.29;100.00;58932.97;5073546;28;20442;-76
2022/01/09 09:43:19;;;;;;;6.40;3.97;;;;;;;-141.29;100.00;58932.97;5073306;28;20869;-76
2022/01/09 09:45:48;;;;;;;7.77;4.13;;;;;;;-141.29;100.00;58932.97;5073262;28;20443;-76
2022/01/09 09:48:15;;;;;;;6.40;4.00;;;;;;;-141.29;100.00;58932.97;5073805;28;20514;-75
2022/01/09 09:50:42;;;;;;;5.53;3.80;;;;;;;-141.29;100.00;58932.97;5077744;28;20560;-74
2022/01/09 09:53:09;;;;;;;8.63;4.90;;;;;;;-141.29;100.00;58932.97;5072992;28;21023;-76
2022/01/09 09:55:38;;;;;;;10.93;4.70;;;;;;;-141.29;100.00;58932.97;5072190;28;20500;-74
2022/01/09 09:58:06;;;;;;;9.70;4.73;;;;;;;-141.29;100.00;58932.97;5072991;28;20969;-76
2022/01/09 10:00:33;;;;;;;13.07;5.60;;;;;;;-141.29;100.00;58932.97;5073333;28;20953;-76
2022/01/09 10:03:02;;;;;;;9.73;5.73;;;;;;;-141.29;100.00;58932.97;5072271;28;20447;-76
2022/01/09 10:05:35;;;;;;;11.70;5.30;;;;;;;-141.29;100.00;58932.97;5073113;28;20953;-75
2022/01/09 10:08:07;;;;;;;9.30;5.30;;;;;;;-141.29;100.00;58932.97;5073173;28;21027;-73
2022/01/09 10:10:35;;;;;;;11.53;6.07;;;;;;;-141.29;100.00;58932.97;5073476;28;20447;-73
2022/01/09 10:13:09;;;;;;;8.37;5.57;;;;;;;-141.29;100.00;58932.97;5073408;28;20478;-75
2022/01/09 10:15:52;;;;;;;14.70;6.17;;;;;;;-141.29;100.00;58932.97;5074108;28;20450;-74
2022/01/09 10:18:37;;;;;;;13.80;6.13;;;;;;;-141.29;100.00;58932.97;5073233;28;20446;-75
2022/01/09 10:21:11;;;;;;;11.57;5.73;;;;;;;-141.29;100.00;58932.97;5073640;28;20447;-74
2022/01/09 10:23:57;;;;;;;12.17;6.17;;;;;;;-141.29;100.00;58932.97;5073729;28;20435;-76
2022/01/09 10:26:24;;;;;;;11.43;6.10;;;;;;;-141.29;100.00;58932.97;5073675;28;20450;-73
2022/01/09 10:28:53;;;;;;;13.60;6.03;;;;;;;-141.29;100.00;58932.97;5072675;28;20459;-73
2022/01/09 10:31:27;;;;;;;12.70;5.97;;;;;;;-141.29;100.00;58932.97;5072295;28;20949;-73
2022/01/09 10:34:12;;;;;;;14.67;5.43;;;;;;;-141.29;100.00;58932.97;5072850;28;20577;-76
2022/01/09 10:36:48;;;;;;;10.20;5.87;;;;;;;-141.29;100.00;58932.97;5073308;28;20438;-75
2022/01/09 10:39:18;;;;;;;10.53;6.23;;;;;;;-141.29;100.00;58932.97;5072974;28;20826;-75
2022/01/09 10:41:50;;;;;;;14.57;6.40;;;;;;;-141.29;100.00;58932.97;5073062;28;20489;-76
2022/01/09 10:44:20;;;;;;;12.07;5.37;;;;;;;-141.29;100.00;58932.97;5072700;28;20442;-74
2022/01/09 10:46:59;;;;;;;12.60;6.37;;;;;;;-141.29;100.00;58932.97;5072179;28;21069;-74
2022/01/09 10:49:37;;;;;;;10.23;5.77;;;;;;;-141.29;100.00;58932.97;5072991;28;20438;-75
2022/01/09 10:52:24;;;;;;;13.20;6.20;;;;;;;-141.29;100.00;58932.97;5072189;28;20473;-74
2022/01/09 10:54:54;;;;;;;11.60;6.57;;;;;;;-141.29;100.00;58932.97;5072195;28;21042;-76
2022/01/09 10:57:29;;;;;;;11.10;6.37;;;;;;;-141.29;100.00;58932.97;5072311;28;20442;-77
2022/01/09 11:00:09;;;;;;;17.00;7.27;;;;;;;-141.29;100.00;58932.97;5072429;28;20442;-76
2022/01/09 11:02:36;;;;;;;10.53;5.43;;;;;;;-141.29;100.00;58932.97;5072385;28;20504;-76
2022/01/09 11:05:05;;;;;;;11.00;6.60;;;;;;;-141.29;100.00;58932.97;5071623;28;20500;-75
2022/01/09 11:07:35;;;;;;;11.07;5.80;;;;;;;-141.29;100.00;58932.97;5071991;28;20434;-76
2022/01/09 11:10:06;;;;;;;9.67;6.13;;;;;;;-141.29;100.00;58932.97;5072048;28;20948;-74
2022/01/09 11:12:42;;;;;;;13.60;7.10;;;;;;;-141.29;100.00;58932.97;5072517;28;20536;-75
2022/01/09 11:15:16;;;;;;;19.00;6.73;;;;;;;-141.29;100.00;58932.97;5070848;28;20976;-75